Terminal Aerodrome Forecast
Issued by NWS

Home | Current Version | Previous Version | Text Only | Print | Product List | Glossary On
Versions: 1 2 3 4 5 6 7 8 9 10 11 12 13 14 15 16
850
FTUS43 KOAX 280544
TAFBFF
TAF
KBFF 280544Z 2806/2906 36012G22KT P6SM BKN100
     FM280700 12007KT P6SM BKN080
     FM282100 36011KT P6SM BKN250=

USA.gov is the U.S. government's official web portal to all federal, state and local government web resources and services.